KNTD/NTD METAR and TAF weather

Enter ICAO airport designator
Station Type Date Time Source
KNTD METAR 2020/07/15 02:25 UTC NOAA

KNTD 150225Z 29009KT 10SM BKN013 18/14 A2995 RMK AO2 T01830139 $


Station Type Date Time Source
KNTD Decoded METAR 2020/07/15 02:25 UTC NOAA

NAWCWPNS POINT MUGU, CA, CA, United States (KNTD) 34-07N 119-07W 2M
Jul 14, 2020 - 10:25 PM EDT / 2020.07.15 0225 UTC
Wind: from the WNW (290 degrees) at 10 MPH (9 KT):0
Visibility: 10 mile(s):0
Sky conditions: mostly cloudy
Temperature: 64.9 F (18.3 C)
Dew Point: 57.0 F (13.9 C)
Relative Humidity: 75%
Pressure (altimeter): 29.95 in. Hg (1014 hPa)
ob: KNTD 150225Z 29009KT 10SM BKN013 18/14 A2995 RMK AO2 T01830139
cycle: 2

Station Type Date Time Source
KNTD TAF 2020/07/14 23:03 UTC NOAA

TAF TAF KNTD 1423/1523 27011KT 9999 SCT014 QNH2990INS
TEMPO 1423/1505 VRB05KT BKN012
BECMG 1505/1507 VRB04KT 9999 OVC010 QNH2992INS
FM151000 VRB03KT 8000 BR OVC008 QNH2991INS
FM151800 22011KT 9000 HZ SCT012 QNH2990INS
TEMPO 1518/1523 27011KT BKN012 AUTOMATED SENSOR METWATCH 1506 TIL 1513 T15/1511Z T21/1521Z FS30101

Example: see airport list